Narsarsuaq, Greenland
Current Conditions -  °F | °C
As of 8:50 PM on Friday 28 Nov 2014 (Local Time) from BGGH Reporting Station
Broken Clouds Broken Clouds  
Wind Chill:   Ceiling: 5000
Heat Index: 18°   Visibility: 6mi
Dew Point:   Wind: 6mph
Humidity: 68%   Direction: 80°E
Pressure: 29.59"   Gusts: NA
Location:  61.17°N, 45.43°W
Report Text: BGGH 282250Z 08005KT 9999 BKN050 M08/M13 Q1002
Loading
Personal Weather Stations






























Interactive Weather Map New forecast layout! Learn more

10-Day Weather Forecast

Advertisements
Track Severe Weather on mobile